sensor_id;sensor_type;location;lat;lon;timestamp;P1;durP1;ratioP1;P2;durP2;ratioP2
8050;SDS011;4068;42.158;24.732;2024-01-15T00:02:08;46.37;;;23.47;;
8050;SDS011;4068;42.158;24.732;2024-01-15T00:04:37;55.87;;;22.40;;
8050;SDS011;4068;42.158;24.732;2024-01-15T00:07:04;54.77;;;23.73;;
8050;SDS011;4068;42.158;24.732;2024-01-15T00:09:30;53.70;;;24.53;;
8050;SDS011;4068;42.158;24.732;2024-01-15T00:11:55;51.17;;;22.57;;
8050;SDS011;4068;42.158;24.732;2024-01-15T00:14:21;61.23;;;24.97;;
8050;SDS011;4068;42.158;24.732;2024-01-15T00:16:47;74.83;;;31.10;;
8050;SDS011;4068;42.158;24.732;2024-01-15T00:19:15;66.20;;;28.87;;
8050;SDS011;4068;42.158;24.732;2024-01-15T00:21:41;80.53;;;30.40;;
8050;SDS011;4068;42.158;24.732;2024-01-15T00:24:06;78.27;;;31.43;;
8050;SDS011;4068;42.158;24.732;2024-01-15T00:26:32;68.13;;;29.33;;
8050;SDS011;4068;42.158;24.732;2024-01-15T00:28:57;61.07;;;25.40;;
8050;SDS011;4068;42.158;24.732;2024-01-15T00:31:23;51.93;;;23.67;;
8050;SDS011;4068;42.158;24.732;2024-01-15T00:33:48;59.73;;;23.23;;
8050;SDS011;4068;42.158;24.732;2024-01-15T00:36:14;52.73;;;22.43;;
8050;SDS011;4068;42.158;24.732;2024-01-15T00:38:40;62.73;;;23.83;;
8050;SDS011;4068;42.158;24.732;2024-01-15T00:41:05;56.43;;;22.17;;
8050;SDS011;4068;42.158;24.732;2024-01-15T00:43:30;53.53;;;21.63;;
8050;SDS011;4068;42.158;24.732;2024-01-15T00:45:56;58.77;;;20.97;;
8050;SDS011;4068;42.158;24.732;2024-01-15T00:48:21;49.33;;;20.83;;
8050;SDS011;4068;42.158;24.732;2024-01-15T00:50:47;54.90;;;22.20;;
8050;SDS011;4068;42.158;24.732;2024-01-15T00:53:12;55.57;;;24.30;;
8050;SDS011;4068;42.158;24.732;2024-01-15T00:55:38;48.97;;;22.30;;
8050;SDS011;4068;42.158;24.732;2024-01-15T00:58:03;60.27;;;24.90;;
8050;SDS011;4068;42.158;24.732;2024-01-15T01:00:29;61.20;;;25.43;;
8050;SDS011;4068;42.158;24.732;2024-01-15T01:02:54;59.80;;;24.47;;
8050;SDS011;4068;42.158;24.732;2024-01-15T01:05:20;41.17;;;21.27;;
8050;SDS011;4068;42.158;24.732;2024-01-15T01:07:46;58.50;;;25.23;;
8050;SDS011;4068;42.158;24.732;2024-01-15T01:10:11;62.20;;;25.80;;
8050;SDS011;4068;42.158;24.732;2024-01-15T01:12:37;65.07;;;27.20;;
8050;SDS011;4068;42.158;24.732;2024-01-15T01:15:02;65.20;;;28.37;;
8050;SDS011;4068;42.158;24.732;2024-01-15T01:17:28;53.83;;;24.87;;
8050;SDS011;4068;42.158;24.732;2024-01-15T01:19:53;57.97;;;26.37;;
8050;SDS011;4068;42.158;24.732;2024-01-15T01:22:19;61.53;;;24.07;;
8050;SDS011;4068;42.158;24.732;2024-01-15T01:24:44;64.23;;;27.50;;
8050;SDS011;4068;42.158;24.732;2024-01-15T01:27:10;70.00;;;27.73;;
8050;SDS011;4068;42.158;24.732;2024-01-15T01:29:35;55.73;;;23.27;;
8050;SDS011;4068;42.158;24.732;2024-01-15T01:32:01;63.00;;;27.07;;
8050;SDS011;4068;42.158;24.732;2024-01-15T01:34:26;54.70;;;22.50;;
8050;SDS011;4068;42.158;24.732;2024-01-15T01:36:52;53.80;;;24.23;;
8050;SDS011;4068;42.158;24.732;2024-01-15T01:39:18;62.80;;;23.93;;
8050;SDS011;4068;42.158;24.732;2024-01-15T01:41:43;58.83;;;23.20;;
8050;SDS011;4068;42.158;24.732;2024-01-15T01:44:09;52.60;;;20.10;;
8050;SDS011;4068;42.158;24.732;2024-01-15T01:46:34;50.70;;;20.53;;
8050;SDS011;4068;42.158;24.732;2024-01-15T01:49:05;45.10;;;19.10;;
8050;SDS011;4068;42.158;24.732;2024-01-15T01:51:33;44.90;;;20.30;;
8050;SDS011;4068;42.158;24.732;2024-01-15T01:54:01;47.53;;;21.67;;
8050;SDS011;4068;42.158;24.732;2024-01-15T01:56:27;47.70;;;21.83;;
8050;SDS011;4068;42.158;24.732;2024-01-15T01:58:52;44.23;;;21.20;;
8050;SDS011;4068;42.158;24.732;2024-01-15T02:01:18;50.87;;;21.73;;
8050;SDS011;4068;42.158;24.732;2024-01-15T02:03:44;50.60;;;22.33;;
8050;SDS011;4068;42.158;24.732;2024-01-15T02:06:10;44.80;;;19.93;;
8050;SDS011;4068;42.158;24.732;2024-01-15T02:08:36;51.73;;;20.77;;
8050;SDS011;4068;42.158;24.732;2024-01-15T02:11:02;48.57;;;21.40;;
8050;SDS011;4068;42.158;24.732;2024-01-15T02:13:28;47.07;;;20.10;;
8050;SDS011;4068;42.158;24.732;2024-01-15T02:15:53;48.70;;;20.40;;
8050;SDS011;4068;42.158;24.732;2024-01-15T02:18:19;46.07;;;21.13;;
8050;SDS011;4068;42.158;24.732;2024-01-15T02:20:45;44.30;;;20.03;;
8050;SDS011;4068;42.158;24.732;2024-01-15T02:23:11;49.70;;;20.67;;
8050;SDS011;4068;42.158;24.732;2024-01-15T02:25:38;48.50;;;20.40;;
8050;SDS011;4068;42.158;24.732;2024-01-15T02:28:05;50.73;;;20.70;;
8050;SDS011;4068;42.158;24.732;2024-01-15T02:30:33;42.37;;;20.53;;
8050;SDS011;4068;42.158;24.732;2024-01-15T02:33:02;43.53;;;19.80;;
8050;SDS011;4068;42.158;24.732;2024-01-15T02:35:27;49.80;;;20.23;;
8050;SDS011;4068;42.158;24.732;2024-01-15T02:37:53;45.93;;;19.63;;
8050;SDS011;4068;42.158;24.732;2024-01-15T02:40:18;55.07;;;21.37;;
8050;SDS011;4068;42.158;24.732;2024-01-15T02:42:44;48.17;;;20.77;;
8050;SDS011;4068;42.158;24.732;2024-01-15T02:45:09;45.77;;;19.10;;
8050;SDS011;4068;42.158;24.732;2024-01-15T02:47:35;44.30;;;20.30;;
8050;SDS011;4068;42.158;24.732;2024-01-15T02:50:00;42.73;;;18.77;;
8050;SDS011;4068;42.158;24.732;2024-01-15T02:52:26;45.77;;;19.60;;
8050;SDS011;4068;42.158;24.732;2024-01-15T02:54:51;47.50;;;19.60;;
8050;SDS011;4068;42.158;24.732;2024-01-15T02:57:17;42.20;;;19.10;;
8050;SDS011;4068;42.158;24.732;2024-01-15T02:59:42;44.20;;;20.13;;
8050;SDS011;4068;42.158;24.732;2024-01-15T03:02:08;60.47;;;20.47;;
8050;SDS011;4068;42.158;24.732;2024-01-15T03:04:33;47.57;;;19.93;;
8050;SDS011;4068;42.158;24.732;2024-01-15T03:06:59;47.63;;;19.17;;
8050;SDS011;4068;42.158;24.732;2024-01-15T03:09:24;42.10;;;18.40;;
8050;SDS011;4068;42.158;24.732;2024-01-15T03:11:49;45.13;;;18.20;;
8050;SDS011;4068;42.158;24.732;2024-01-15T03:14:15;49.90;;;20.73;;
8050;SDS011;4068;42.158;24.732;2024-01-15T03:16:41;49.87;;;20.80;;
8050;SDS011;4068;42.158;24.732;2024-01-15T03:19:06;50.43;;;21.20;;
8050;SDS011;4068;42.158;24.732;2024-01-15T03:21:32;44.63;;;19.50;;
8050;SDS011;4068;42.158;24.732;2024-01-15T03:23:57;42.70;;;19.90;;
8050;SDS011;4068;42.158;24.732;2024-01-15T03:26:23;48.17;;;19.17;;
8050;SDS011;4068;42.158;24.732;2024-01-15T03:28:48;55.93;;;21.47;;
8050;SDS011;4068;42.158;24.732;2024-01-15T03:31:14;51.07;;;20.10;;
8050;SDS011;4068;42.158;24.732;2024-01-15T03:33:39;53.23;;;20.47;;
8050;SDS011;4068;42.158;24.732;2024-01-15T03:36:05;56.27;;;23.47;;
8050;SDS011;4068;42.158;24.732;2024-01-15T03:38:31;56.53;;;22.53;;
8050;SDS011;4068;42.158;24.732;2024-01-15T03:40:56;54.33;;;22.37;;
8050;SDS011;4068;42.158;24.732;2024-01-15T03:43:22;52.20;;;23.03;;
8050;SDS011;4068;42.158;24.732;2024-01-15T03:45:47;56.67;;;23.77;;
8050;SDS011;4068;42.158;24.732;2024-01-15T03:48:13;59.67;;;22.20;;
8050;SDS011;4068;42.158;24.732;2024-01-15T03:50:38;67.93;;;23.93;;
8050;SDS011;4068;42.158;24.732;2024-01-15T03:53:04;59.37;;;24.03;;
8050;SDS011;4068;42.158;24.732;2024-01-15T03:55:29;46.87;;;21.53;;
8050;SDS011;4068;42.158;24.732;2024-01-15T03:57:55;64.60;;;22.10;;
8050;SDS011;4068;42.158;24.732;2024-01-15T04:00:20;51.43;;;21.73;;
8050;SDS011;4068;42.158;24.732;2024-01-15T04:02:46;50.53;;;22.00;;
8050;SDS011;4068;42.158;24.732;2024-01-15T04:05:11;56.60;;;21.07;;
8050;SDS011;4068;42.158;24.732;2024-01-15T04:07:37;47.53;;;19.73;;
8050;SDS011;4068;42.158;24.732;2024-01-15T04:10:02;47.33;;;19.77;;
8050;SDS011;4068;42.158;24.732;2024-01-15T04:12:28;48.03;;;21.53;;
8050;SDS011;4068;42.158;24.732;2024-01-15T04:14:53;36.13;;;17.30;;
8050;SDS011;4068;42.158;24.732;2024-01-15T04:17:19;41.17;;;18.10;;
8050;SDS011;4068;42.158;24.732;2024-01-15T04:19:46;40.63;;;17.43;;
8050;SDS011;4068;42.158;24.732;2024-01-15T04:22:13;34.47;;;16.77;;
8050;SDS011;4068;42.158;24.732;2024-01-15T04:24:38;46.67;;;18.80;;
8050;SDS011;4068;42.158;24.732;2024-01-15T04:27:04;46.03;;;18.43;;
8050;SDS011;4068;42.158;24.732;2024-01-15T04:29:30;35.27;;;16.00;;
8050;SDS011;4068;42.158;24.732;2024-01-15T04:31:56;34.83;;;15.47;;
8050;SDS011;4068;42.158;24.732;2024-01-15T04:34:21;38.87;;;16.60;;
8050;SDS011;4068;42.158;24.732;2024-01-15T04:36:46;41.40;;;18.87;;
8050;SDS011;4068;42.158;24.732;2024-01-15T04:39:12;45.20;;;17.90;;
8050;SDS011;4068;42.158;24.732;2024-01-15T04:41:37;42.50;;;17.27;;
8050;SDS011;4068;42.158;24.732;2024-01-15T04:44:03;43.33;;;18.83;;
8050;SDS011;4068;42.158;24.732;2024-01-15T04:46:28;41.13;;;17.97;;
8050;SDS011;4068;42.158;24.732;2024-01-15T04:48:54;44.80;;;17.50;;
8050;SDS011;4068;42.158;24.732;2024-01-15T04:51:20;45.07;;;18.23;;
8050;SDS011;4068;42.158;24.732;2024-01-15T04:53:45;46.80;;;18.23;;
8050;SDS011;4068;42.158;24.732;2024-01-15T04:56:11;36.63;;;16.40;;
8050;SDS011;4068;42.158;24.732;2024-01-15T04:58:36;46.67;;;18.60;;
8050;SDS011;4068;42.158;24.732;2024-01-15T05:01:02;53.37;;;18.83;;
8050;SDS011;4068;42.158;24.732;2024-01-15T05:03:28;46.33;;;17.83;;
8050;SDS011;4068;42.158;24.732;2024-01-15T05:05:53;38.07;;;17.80;;
8050;SDS011;4068;42.158;24.732;2024-01-15T05:08:18;46.07;;;20.10;;
8050;SDS011;4068;42.158;24.732;2024-01-15T05:10:44;42.90;;;17.93;;
8050;SDS011;4068;42.158;24.732;2024-01-15T05:13:10;50.63;;;18.87;;
8050;SDS011;4068;42.158;24.732;2024-01-15T05:15:35;44.90;;;18.43;;
8050;SDS011;4068;42.158;24.732;2024-01-15T05:18:01;47.60;;;19.77;;
8050;SDS011;4068;42.158;24.732;2024-01-15T05:20:26;49.30;;;18.83;;
8050;SDS011;4068;42.158;24.732;2024-01-15T05:22:52;44.93;;;21.17;;
8050;SDS011;4068;42.158;24.732;2024-01-15T05:25:17;51.97;;;20.90;;
8050;SDS011;4068;42.158;24.732;2024-01-15T05:27:43;47.93;;;22.63;;
8050;SDS011;4068;42.158;24.732;2024-01-15T05:30:08;58.13;;;24.47;;
8050;SDS011;4068;42.158;24.732;2024-01-15T05:32:34;57.23;;;24.27;;
8050;SDS011;4068;42.158;24.732;2024-01-15T05:34:59;52.53;;;25.03;;
8050;SDS011;4068;42.158;24.732;2024-01-15T05:37:25;67.10;;;27.60;;
8050;SDS011;4068;42.158;24.732;2024-01-15T05:39:51;114.83;;;51.47;;
8050;SDS011;4068;42.158;24.732;2024-01-15T05:42:16;111.17;;;43.43;;
8050;SDS011;4068;42.158;24.732;2024-01-15T05:44:42;70.33;;;29.17;;
8050;SDS011;4068;42.158;24.732;2024-01-15T05:47:07;70.90;;;29.53;;
8050;SDS011;4068;42.158;24.732;2024-01-15T05:49:33;58.97;;;25.40;;
8050;SDS011;4068;42.158;24.732;2024-01-15T05:51:58;45.47;;;20.50;;
8050;SDS011;4068;42.158;24.732;2024-01-15T05:54:24;42.30;;;19.60;;
8050;SDS011;4068;42.158;24.732;2024-01-15T05:56:49;44.43;;;19.03;;
8050;SDS011;4068;42.158;24.732;2024-01-15T05:59:15;47.77;;;22.73;;
8050;SDS011;4068;42.158;24.732;2024-01-15T06:01:40;66.17;;;28.93;;
8050;SDS011;4068;42.158;24.732;2024-01-15T06:04:06;82.50;;;31.57;;
8050;SDS011;4068;42.158;24.732;2024-01-15T06:06:31;84.90;;;34.50;;
8050;SDS011;4068;42.158;24.732;2024-01-15T06:08:57;93.47;;;38.03;;
8050;SDS011;4068;42.158;24.732;2024-01-15T06:11:29;82.30;;;33.80;;
8050;SDS011;4068;42.158;24.732;2024-01-15T06:13:55;67.07;;;28.13;;
8050;SDS011;4068;42.158;24.732;2024-01-15T06:16:20;64.40;;;26.93;;
8050;SDS011;4068;42.158;24.732;2024-01-15T06:18:46;56.50;;;23.13;;
8050;SDS011;4068;42.158;24.732;2024-01-15T06:21:12;66.20;;;23.63;;
8050;SDS011;4068;42.158;24.732;2024-01-15T06:23:39;56.43;;;22.77;;
8050;SDS011;4068;42.158;24.732;2024-01-15T06:26:05;43.90;;;19.53;;
8050;SDS011;4068;42.158;24.732;2024-01-15T06:28:30;47.47;;;19.60;;
8050;SDS011;4068;42.158;24.732;2024-01-15T06:30:56;53.73;;;19.10;;
8050;SDS011;4068;42.158;24.732;2024-01-15T06:33:23;57.37;;;20.13;;
8050;SDS011;4068;42.158;24.732;2024-01-15T06:35:48;45.57;;;18.30;;
8050;SDS011;4068;42.158;24.732;2024-01-15T06:38:14;39.13;;;17.20;;
8050;SDS011;4068;42.158;24.732;2024-01-15T06:40:40;46.37;;;19.40;;
8050;SDS011;4068;42.158;24.732;2024-01-15T06:43:10;42.40;;;17.17;;
8050;SDS011;4068;42.158;24.732;2024-01-15T06:45:36;50.50;;;18.27;;
8050;SDS011;4068;42.158;24.732;2024-01-15T06:48:02;36.20;;;16.97;;
8050;SDS011;4068;42.158;24.732;2024-01-15T06:50:27;45.73;;;17.37;;
8050;SDS011;4068;42.158;24.732;2024-01-15T06:52:53;39.70;;;17.47;;
8050;SDS011;4068;42.158;24.732;2024-01-15T06:55:18;46.90;;;18.07;;
8050;SDS011;4068;42.158;24.732;2024-01-15T06:57:44;38.00;;;18.37;;
8050;SDS011;4068;42.158;24.732;2024-01-15T07:00:09;45.23;;;19.70;;
8050;SDS011;4068;42.158;24.732;2024-01-15T07:02:35;47.80;;;21.20;;
8050;SDS011;4068;42.158;24.732;2024-01-15T07:05:01;42.73;;;18.83;;
8050;SDS011;4068;42.158;24.732;2024-01-15T07:07:26;42.20;;;17.70;;
8050;SDS011;4068;42.158;24.732;2024-01-15T07:09:54;51.97;;;19.93;;
8050;SDS011;4068;42.158;24.732;2024-01-15T07:12:20;48.83;;;20.03;;
8050;SDS011;4068;42.158;24.732;2024-01-15T07:14:46;57.67;;;23.10;;
8050;SDS011;4068;42.158;24.732;2024-01-15T07:17:11;43.33;;;19.27;;
8050;SDS011;4068;42.158;24.732;2024-01-15T07:19:37;53.03;;;22.57;;
8050;SDS011;4068;42.158;24.732;2024-01-15T07:22:02;55.50;;;23.00;;
8050;SDS011;4068;42.158;24.732;2024-01-15T07:24:28;58.53;;;21.27;;
8050;SDS011;4068;42.158;24.732;2024-01-15T07:26:54;60.50;;;23.67;;
8050;SDS011;4068;42.158;24.732;2024-01-15T07:29:19;55.80;;;23.03;;
8050;SDS011;4068;42.158;24.732;2024-01-15T07:31:49;57.77;;;23.77;;
8050;SDS011;4068;42.158;24.732;2024-01-15T07:34:15;48.70;;;22.23;;
8050;SDS011;4068;42.158;24.732;2024-01-15T07:36:42;50.70;;;21.83;;
8050;SDS011;4068;42.158;24.732;2024-01-15T07:39:07;57.40;;;23.17;;
8050;SDS011;4068;42.158;24.732;2024-01-15T07:41:33;70.27;;;24.47;;
8050;SDS011;4068;42.158;24.732;2024-01-15T07:43:58;57.00;;;24.27;;
8050;SDS011;4068;42.158;24.732;2024-01-15T07:46:23;55.27;;;22.50;;
8050;SDS011;4068;42.158;24.732;2024-01-15T07:48:50;47.87;;;22.27;;
8050;SDS011;4068;42.158;24.732;2024-01-15T07:51:21;48.23;;;21.10;;
8050;SDS011;4068;42.158;24.732;2024-01-15T07:53:50;48.33;;;20.90;;
8050;SDS011;4068;42.158;24.732;2024-01-15T07:56:16;48.57;;;22.10;;
8050;SDS011;4068;42.158;24.732;2024-01-15T07:58:41;44.13;;;19.03;;
8050;SDS011;4068;42.158;24.732;2024-01-15T08:01:07;43.90;;;20.73;;
8050;SDS011;4068;42.158;24.732;2024-01-15T08:03:33;46.97;;;19.93;;
8050;SDS011;4068;42.158;24.732;2024-01-15T08:05:59;46.43;;;22.57;;
8050;SDS011;4068;42.158;24.732;2024-01-15T08:08:25;52.90;;;21.53;;
8050;SDS011;4068;42.158;24.732;2024-01-15T08:10:53;52.37;;;22.73;;
8050;SDS011;4068;42.158;24.732;2024-01-15T08:13:19;52.73;;;25.97;;
8050;SDS011;4068;42.158;24.732;2024-01-15T08:15:45;70.83;;;26.87;;
8050;SDS011;4068;42.158;24.732;2024-01-15T08:18:11;62.43;;;27.73;;
8050;SDS011;4068;42.158;24.732;2024-01-15T08:20:36;46.80;;;22.73;;
8050;SDS011;4068;42.158;24.732;2024-01-15T08:23:02;44.77;;;21.67;;
8050;SDS011;4068;42.158;24.732;2024-01-15T08:25:28;44.00;;;21.97;;
8050;SDS011;4068;42.158;24.732;2024-01-15T08:27:53;49.10;;;20.97;;
8050;SDS011;4068;42.158;24.732;2024-01-15T08:30:19;37.03;;;19.27;;
8050;SDS011;4068;42.158;24.732;2024-01-15T08:32:46;39.67;;;18.70;;
8050;SDS011;4068;42.158;24.732;2024-01-15T08:35:11;42.37;;;19.60;;
8050;SDS011;4068;42.158;24.732;2024-01-15T08:37:38;32.73;;;16.20;;
8050;SDS011;4068;42.158;24.732;2024-01-15T08:40:04;31.63;;;16.10;;
8050;SDS011;4068;42.158;24.732;2024-01-15T08:42:29;38.73;;;17.67;;
8050;SDS011;4068;42.158;24.732;2024-01-15T08:44:55;36.60;;;17.60;;
8050;SDS011;4068;42.158;24.732;2024-01-15T08:47:20;34.23;;;17.23;;
8050;SDS011;4068;42.158;24.732;2024-01-15T08:49:46;36.70;;;17.63;;
8050;SDS011;4068;42.158;24.732;2024-01-15T08:52:11;36.50;;;19.53;;
8050;SDS011;4068;42.158;24.732;2024-01-15T08:54:37;41.23;;;18.67;;
8050;SDS011;4068;42.158;24.732;2024-01-15T08:57:03;39.80;;;18.87;;
8050;SDS011;4068;42.158;24.732;2024-01-15T08:59:28;40.00;;;18.23;;
8050;SDS011;4068;42.158;24.732;2024-01-15T09:01:54;53.80;;;18.43;;
8050;SDS011;4068;42.158;24.732;2024-01-15T09:04:22;44.80;;;19.20;;
8050;SDS011;4068;42.158;24.732;2024-01-15T09:06:48;36.93;;;18.47;;
8050;SDS011;4068;42.158;24.732;2024-01-15T09:09:13;39.43;;;19.27;;
8050;SDS011;4068;42.158;24.732;2024-01-15T09:11:42;45.27;;;19.70;;
8050;SDS011;4068;42.158;24.732;2024-01-15T09:14:07;40.50;;;19.00;;
8050;SDS011;4068;42.158;24.732;2024-01-15T09:16:34;43.53;;;19.30;;
8050;SDS011;4068;42.158;24.732;2024-01-15T09:19:00;43.07;;;19.37;;
8050;SDS011;4068;42.158;24.732;2024-01-15T09:21:25;56.27;;;21.10;;
8050;SDS011;4068;42.158;24.732;2024-01-15T09:23:51;42.43;;;20.33;;
8050;SDS011;4068;42.158;24.732;2024-01-15T09:26:17;52.63;;;22.87;;
8050;SDS011;4068;42.158;24.732;2024-01-15T09:28:42;45.70;;;25.27;;
8050;SDS011;4068;42.158;24.732;2024-01-15T09:31:08;57.27;;;27.23;;
8050;SDS011;4068;42.158;24.732;2024-01-15T09:33:33;44.30;;;21.47;;
8050;SDS011;4068;42.158;24.732;2024-01-15T09:36:02;43.20;;;21.17;;
8050;SDS011;4068;42.158;24.732;2024-01-15T09:38:29;40.73;;;20.50;;
8050;SDS011;4068;42.158;24.732;2024-01-15T09:40:55;41.53;;;18.93;;
8050;SDS011;4068;42.158;24.732;2024-01-15T09:43:20;41.27;;;20.13;;
8050;SDS011;4068;42.158;24.732;2024-01-15T09:45:46;43.87;;;20.10;;
8050;SDS011;4068;42.158;24.732;2024-01-15T09:48:13;46.57;;;21.67;;
8050;SDS011;4068;42.158;24.732;2024-01-15T09:50:38;51.93;;;22.73;;
8050;SDS011;4068;42.158;24.732;2024-01-15T09:53:05;47.60;;;22.40;;
8050;SDS011;4068;42.158;24.732;2024-01-15T09:55:31;38.63;;;21.27;;
8050;SDS011;4068;42.158;24.732;2024-01-15T09:57:57;44.40;;;21.40;;
8050;SDS011;4068;42.158;24.732;2024-01-15T10:00:25;44.57;;;20.97;;
8050;SDS011;4068;42.158;24.732;2024-01-15T10:02:52;37.10;;;19.57;;
8050;SDS011;4068;42.158;24.732;2024-01-15T10:05:18;38.43;;;19.87;;
8050;SDS011;4068;42.158;24.732;2024-01-15T10:07:43;38.97;;;19.47;;
8050;SDS011;4068;42.158;24.732;2024-01-15T10:10:11;46.07;;;20.80;;
8050;SDS011;4068;42.158;24.732;2024-01-15T10:12:36;39.93;;;19.57;;
8050;SDS011;4068;42.158;24.732;2024-01-15T10:15:04;43.90;;;20.13;;
8050;SDS011;4068;42.158;24.732;2024-01-15T10:17:30;36.77;;;19.70;;
8050;SDS011;4068;42.158;24.732;2024-01-15T10:19:56;42.57;;;21.47;;
8050;SDS011;4068;42.158;24.732;2024-01-15T10:22:22;42.50;;;21.17;;
8050;SDS011;4068;42.158;24.732;2024-01-15T10:24:48;39.63;;;21.13;;
8050;SDS011;4068;42.158;24.732;2024-01-15T10:27:14;42.57;;;21.27;;
8050;SDS011;4068;42.158;24.732;2024-01-15T10:29:41;56.37;;;23.23;;
8050;SDS011;4068;42.158;24.732;2024-01-15T10:32:07;44.73;;;20.87;;
8050;SDS011;4068;42.158;24.732;2024-01-15T10:34:36;42.57;;;21.10;;
8050;SDS011;4068;42.158;24.732;2024-01-15T10:37:03;45.03;;;21.27;;
8050;SDS011;4068;42.158;24.732;2024-01-15T10:39:29;42.63;;;20.57;;
8050;SDS011;4068;42.158;24.732;2024-01-15T10:41:55;44.23;;;22.97;;
8050;SDS011;4068;42.158;24.732;2024-01-15T10:44:20;43.30;;;21.87;;
8050;SDS011;4068;42.158;24.732;2024-01-15T10:46:46;39.20;;;21.93;;
8050;SDS011;4068;42.158;24.732;2024-01-15T10:49:12;44.60;;;22.67;;
8050;SDS011;4068;42.158;24.732;2024-01-15T10:51:38;42.53;;;21.47;;
8050;SDS011;4068;42.158;24.732;2024-01-15T10:54:04;54.43;;;23.67;;
8050;SDS011;4068;42.158;24.732;2024-01-15T10:56:31;41.17;;;21.97;;
8050;SDS011;4068;42.158;24.732;2024-01-15T10:59:00;47.47;;;23.07;;
8050;SDS011;4068;42.158;24.732;2024-01-15T11:01:25;47.60;;;22.73;;
8050;SDS011;4068;42.158;24.732;2024-01-15T11:03:51;41.07;;;22.30;;
8050;SDS011;4068;42.158;24.732;2024-01-15T11:06:21;44.67;;;22.90;;
8050;SDS011;4068;42.158;24.732;2024-01-15T11:08:49;44.07;;;21.23;;
8050;SDS011;4068;42.158;24.732;2024-01-15T11:11:17;45.45;;;21.95;;
8050;SDS011;4068;42.158;24.732;2024-01-15T11:13:43;46.00;;;23.75;;
8050;SDS011;4068;42.158;24.732;2024-01-15T11:16:11;45.75;;;22.20;;
8050;SDS011;4068;42.158;24.732;2024-01-15T11:34:22;40.70;;;19.80;;
8050;SDS011;4068;42.158;24.732;2024-01-15T11:37:23;42.90;;;19.33;;
8050;SDS011;4068;42.158;24.732;2024-01-15T11:39:54;37.70;;;18.90;;
8050;SDS011;4068;42.158;24.732;2024-01-15T11:42:21;41.22;;;19.88;;
8050;SDS011;4068;42.158;24.732;2024-01-15T11:44:47;45.88;;;20.77;;
8050;SDS011;4068;42.158;24.732;2024-01-15T11:47:13;45.63;;;20.55;;
8050;SDS011;4068;42.158;24.732;2024-01-15T11:52:36;41.35;;;20.85;;
8050;SDS011;4068;42.158;24.732;2024-01-15T11:57:51;37.35;;;19.70;;
8050;SDS011;4068;42.158;24.732;2024-01-15T12:00:19;40.90;;;20.00;;
8050;SDS011;4068;42.158;24.732;2024-01-15T12:02:48;47.42;;;21.70;;
8050;SDS011;4068;42.158;24.732;2024-01-15T12:05:15;43.75;;;20.95;;
8050;SDS011;4068;42.158;24.732;2024-01-15T12:07:42;50.85;;;23.65;;
8050;SDS011;4068;42.158;24.732;2024-01-15T12:10:10;40.45;;;21.75;;
8050;SDS011;4068;42.158;24.732;2024-01-15T12:15:25;51.13;;;25.00;;
8050;SDS011;4068;42.158;24.732;2024-01-15T12:17:52;46.53;;;24.25;;
8050;SDS011;4068;42.158;24.732;2024-01-15T12:20:20;62.03;;;25.30;;
8050;SDS011;4068;42.158;24.732;2024-01-15T12:22:46;54.27;;;25.53;;
8050;SDS011;4068;42.158;24.732;2024-01-15T12:25:11;61.37;;;26.07;;
8050;SDS011;4068;42.158;24.732;2024-01-15T12:27:37;52.90;;;25.27;;
8050;SDS011;4068;42.158;24.732;2024-01-15T12:30:03;56.33;;;25.57;;
8050;SDS011;4068;42.158;24.732;2024-01-15T12:32:28;60.17;;;26.63;;
8050;SDS011;4068;42.158;24.732;2024-01-15T12:34:54;56.17;;;26.10;;
8050;SDS011;4068;42.158;24.732;2024-01-15T12:37:20;53.10;;;26.90;;
8050;SDS011;4068;42.158;24.732;2024-01-15T12:39:46;58.50;;;28.20;;
8050;SDS011;4068;42.158;24.732;2024-01-15T12:42:16;55.20;;;27.40;;
8050;SDS011;4068;42.158;24.732;2024-01-15T12:44:42;53.27;;;26.70;;
8050;SDS011;4068;42.158;24.732;2024-01-15T12:47:08;67.33;;;28.93;;
8050;SDS011;4068;42.158;24.732;2024-01-15T12:49:35;53.63;;;28.60;;
8050;SDS011;4068;42.158;24.732;2024-01-15T12:52:07;59.73;;;28.57;;
8050;SDS011;4068;42.158;24.732;2024-01-15T12:54:34;56.17;;;27.30;;
8050;SDS011;4068;42.158;24.732;2024-01-15T12:56:59;58.63;;;29.90;;
8050;SDS011;4068;42.158;24.732;2024-01-15T12:59:25;61.73;;;30.57;;
8050;SDS011;4068;42.158;24.732;2024-01-15T13:01:50;58.17;;;29.43;;
8050;SDS011;4068;42.158;24.732;2024-01-15T13:04:23;59.97;;;29.47;;
8050;SDS011;4068;42.158;24.732;2024-01-15T13:06:52;63.47;;;30.67;;
8050;SDS011;4068;42.158;24.732;2024-01-15T13:09:18;63.83;;;29.13;;
8050;SDS011;4068;42.158;24.732;2024-01-15T13:11:47;59.47;;;30.40;;
8050;SDS011;4068;42.158;24.732;2024-01-15T13:14:12;66.30;;;31.37;;
8050;SDS011;4068;42.158;24.732;2024-01-15T13:16:41;69.70;;;31.50;;
8050;SDS011;4068;42.158;24.732;2024-01-15T13:19:07;63.27;;;29.60;;
8050;SDS011;4068;42.158;24.732;2024-01-15T13:21:34;58.77;;;28.73;;
8050;SDS011;4068;42.158;24.732;2024-01-15T13:23:59;53.87;;;28.47;;
8050;SDS011;4068;42.158;24.732;2024-01-15T13:26:25;60.47;;;27.43;;
8050;SDS011;4068;42.158;24.732;2024-01-15T13:28:50;51.87;;;26.13;;
8050;SDS011;4068;42.158;24.732;2024-01-15T13:31:16;60.40;;;27.17;;
8050;SDS011;4068;42.158;24.732;2024-01-15T13:33:41;54.90;;;26.90;;
8050;SDS011;4068;42.158;24.732;2024-01-15T13:36:07;53.07;;;27.37;;
8050;SDS011;4068;42.158;24.732;2024-01-15T13:38:36;52.27;;;25.87;;
8050;SDS011;4068;42.158;24.732;2024-01-15T13:41:03;57.13;;;27.17;;
8050;SDS011;4068;42.158;24.732;2024-01-15T13:43:30;59.47;;;25.77;;
8050;SDS011;4068;42.158;24.732;2024-01-15T13:45:56;50.10;;;25.20;;
8050;SDS011;4068;42.158;24.732;2024-01-15T13:48:22;48.97;;;24.97;;
8050;SDS011;4068;42.158;24.732;2024-01-15T13:50:48;53.53;;;26.03;;
8050;SDS011;4068;42.158;24.732;2024-01-15T13:53:15;56.43;;;27.43;;
8050;SDS011;4068;42.158;24.732;2024-01-15T13:55:41;59.17;;;27.07;;
8050;SDS011;4068;42.158;24.732;2024-01-15T13:58:07;60.87;;;29.23;;
8050;SDS011;4068;42.158;24.732;2024-01-15T14:00:32;55.93;;;28.13;;
8050;SDS011;4068;42.158;24.732;2024-01-15T14:02:58;54.03;;;25.40;;
8050;SDS011;4068;42.158;24.732;2024-01-15T14:05:24;48.53;;;23.07;;
8050;SDS011;4068;42.158;24.732;2024-01-15T14:07:49;46.30;;;22.97;;
8050;SDS011;4068;42.158;24.732;2024-01-15T14:10:15;56.03;;;24.30;;
8050;SDS011;4068;42.158;24.732;2024-01-15T14:12:41;58.97;;;26.63;;
8050;SDS011;4068;42.158;24.732;2024-01-15T14:15:06;63.13;;;26.93;;
8050;SDS011;4068;42.158;24.732;2024-01-15T14:17:32;60.83;;;27.27;;
8050;SDS011;4068;42.158;24.732;2024-01-15T14:19:58;63.77;;;28.80;;
8050;SDS011;4068;42.158;24.732;2024-01-15T14:22:23;54.67;;;24.73;;
8050;SDS011;4068;42.158;24.732;2024-01-15T14:24:49;46.07;;;21.50;;
8050;SDS011;4068;42.158;24.732;2024-01-15T14:27:15;58.00;;;21.90;;
8050;SDS011;4068;42.158;24.732;2024-01-15T14:29:41;49.23;;;22.20;;
8050;SDS011;4068;42.158;24.732;2024-01-15T14:32:07;44.83;;;22.33;;
8050;SDS011;4068;42.158;24.732;2024-01-15T14:34:32;51.20;;;21.63;;
8050;SDS011;4068;42.158;24.732;2024-01-15T14:36:58;43.37;;;21.33;;
8050;SDS011;4068;42.158;24.732;2024-01-15T14:39:23;46.93;;;21.97;;
8050;SDS011;4068;42.158;24.732;2024-01-15T14:41:49;44.20;;;22.17;;
8050;SDS011;4068;42.158;24.732;2024-01-15T14:44:15;49.40;;;21.00;;
8050;SDS011;4068;42.158;24.732;2024-01-15T14:46:40;47.33;;;21.33;;
8050;SDS011;4068;42.158;24.732;2024-01-15T14:49:06;49.17;;;21.33;;
8050;SDS011;4068;42.158;24.732;2024-01-15T14:51:32;42.40;;;20.67;;